sensor_id;sensor_type;location;lat;lon;timestamp;temperature;humidity
4673;DHT22;61885;53.560;9.940;2023-02-15T00:01:26;4.00;99.90
4673;DHT22;61885;53.560;9.940;2023-02-15T00:03:58;4.00;99.90
4673;DHT22;61885;53.560;9.940;2023-02-15T00:06:31;4.10;99.90
4673;DHT22;61885;53.560;9.940;2023-02-15T00:09:01;4.20;99.90
4673;DHT22;61885;53.560;9.940;2023-02-15T00:11:31;4.10;99.90
4673;DHT22;61885;53.560;9.940;2023-02-15T00:14:12;4.20;99.90
4673;DHT22;61885;53.560;9.940;2023-02-15T00:16:43;4.20;99.90
4673;DHT22;61885;53.560;9.940;2023-02-15T00:19:15;4.20;99.90
4673;DHT22;61885;53.560;9.940;2023-02-15T00:21:48;4.30;99.90
4673;DHT22;61885;53.560;9.940;2023-02-15T00:24:18;4.20;99.90
4673;DHT22;61885;53.560;9.940;2023-02-15T00:26:50;4.20;99.90
4673;DHT22;61885;53.560;9.940;2023-02-15T00:29:20;4.20;99.90
4673;DHT22;61885;53.560;9.940;2023-02-15T00:31:50;4.10;99.90
4673;DHT22;61885;53.560;9.940;2023-02-15T00:34:21;4.10;99.90
4673;DHT22;61885;53.560;9.940;2023-02-15T00:36:54;4.20;99.90
4673;DHT22;61885;53.560;9.940;2023-02-15T00:39:24;4.30;99.90
4673;DHT22;61885;53.560;9.940;2023-02-15T00:41:55;4.30;99.90
4673;DHT22;61885;53.560;9.940;2023-02-15T00:44:25;4.30;99.90
4673;DHT22;61885;53.560;9.940;2023-02-15T00:46:55;4.30;99.90
4673;DHT22;61885;53.560;9.940;2023-02-15T00:49:24;4.40;99.90
4673;DHT22;61885;53.560;9.940;2023-02-15T00:51:57;4.40;99.90
4673;DHT22;61885;53.560;9.940;2023-02-15T00:54:27;4.40;99.90
4673;DHT22;61885;53.560;9.940;2023-02-15T00:56:56;4.40;99.90
4673;DHT22;61885;53.560;9.940;2023-02-15T00:59:26;4.40;99.90
4673;DHT22;61885;53.560;9.940;2023-02-15T01:01:56;4.40;99.90
4673;DHT22;61885;53.560;9.940;2023-02-15T01:04:27;4.30;99.90
4673;DHT22;61885;53.560;9.940;2023-02-15T01:06:59;4.30;99.90
4673;DHT22;61885;53.560;9.940;2023-02-15T01:09:30;4.30;99.90
4673;DHT22;61885;53.560;9.940;2023-02-15T01:11:59;4.30;99.90
4673;DHT22;61885;53.560;9.940;2023-02-15T01:14:29;4.40;99.90
4673;DHT22;61885;53.560;9.940;2023-02-15T01:16:58;4.40;99.90
4673;DHT22;61885;53.560;9.940;2023-02-15T01:19:28;4.40;99.90
4673;DHT22;61885;53.560;9.940;2023-02-15T01:22:00;4.30;99.90
4673;DHT22;61885;53.560;9.940;2023-02-15T01:24:31;4.30;99.90
4673;DHT22;61885;53.560;9.940;2023-02-15T01:27:00;4.30;99.90
4673;DHT22;61885;53.560;9.940;2023-02-15T01:29:30;4.40;99.90
4673;DHT22;61885;53.560;9.940;2023-02-15T01:32:00;4.40;99.90
4673;DHT22;61885;53.560;9.940;2023-02-15T01:34:29;4.40;99.90
4673;DHT22;61885;53.560;9.940;2023-02-15T01:37:02;4.40;99.90
4673;DHT22;61885;53.560;9.940;2023-02-15T01:39:36;4.40;99.90
4673;DHT22;61885;53.560;9.940;2023-02-15T01:42:07;4.30;99.90
4673;DHT22;61885;53.560;9.940;2023-02-15T01:44:51;4.30;99.90
4673;DHT22;61885;53.560;9.940;2023-02-15T01:47:25;4.20;99.90
4673;DHT22;61885;53.560;9.940;2023-02-15T01:50:02;4.30;99.90
4673;DHT22;61885;53.560;9.940;2023-02-15T01:52:38;4.40;99.90
4673;DHT22;61885;53.560;9.940;2023-02-15T01:55:10;4.40;99.90
4673;DHT22;61885;53.560;9.940;2023-02-15T01:57:41;4.30;99.90
4673;DHT22;61885;53.560;9.940;2023-02-15T02:00:15;4.40;99.90
4673;DHT22;61885;53.560;9.940;2023-02-15T02:02:48;4.40;99.90
4673;DHT22;61885;53.560;9.940;2023-02-15T02:05:19;4.30;99.90
4673;DHT22;61885;53.560;9.940;2023-02-15T02:07:54;4.30;99.90
4673;DHT22;61885;53.560;9.940;2023-02-15T02:10:26;4.30;99.90
4673;DHT22;61885;53.560;9.940;2023-02-15T02:12:59;4.30;99.90
4673;DHT22;61885;53.560;9.940;2023-02-15T02:15:36;4.40;99.90
4673;DHT22;61885;53.560;9.940;2023-02-15T02:18:21;4.40;99.90
4673;DHT22;61885;53.560;9.940;2023-02-15T02:24:03;4.50;99.90
4673;DHT22;61885;53.560;9.940;2023-02-15T02:30:06;4.40;99.90
4673;DHT22;61885;53.560;9.940;2023-02-15T02:33:25;4.40;99.90
4673;DHT22;61885;53.560;9.940;2023-02-15T02:36:02;4.30;99.90
4673;DHT22;61885;53.560;9.940;2023-02-15T02:38:45;4.30;99.90
4673;DHT22;61885;53.560;9.940;2023-02-15T02:41:23;4.40;99.90
4673;DHT22;61885;53.560;9.940;2023-02-15T02:44:01;4.40;99.90
4673;DHT22;61885;53.560;9.940;2023-02-15T02:46:38;4.30;99.90
4673;DHT22;61885;53.560;9.940;2023-02-15T02:49:13;4.40;99.90
4673;DHT22;61885;53.560;9.940;2023-02-15T02:51:44;4.50;99.90
4673;DHT22;61885;53.560;9.940;2023-02-15T02:54:15;4.40;99.90
4673;DHT22;61885;53.560;9.940;2023-02-15T02:56:48;4.30;99.90
4673;DHT22;61885;53.560;9.940;2023-02-15T02:59:21;4.30;99.90
4673;DHT22;61885;53.560;9.940;2023-02-15T03:01:59;4.30;99.90
4673;DHT22;61885;53.560;9.940;2023-02-15T03:04:38;4.30;99.90
4673;DHT22;61885;53.560;9.940;2023-02-15T03:07:14;4.30;99.90
4673;DHT22;61885;53.560;9.940;2023-02-15T03:09:52;4.30;99.90
4673;DHT22;61885;53.560;9.940;2023-02-15T03:12:26;4.30;99.90
4673;DHT22;61885;53.560;9.940;2023-02-15T03:15:01;4.30;99.90
4673;DHT22;61885;53.560;9.940;2023-02-15T03:17:35;4.20;99.90
4673;DHT22;61885;53.560;9.940;2023-02-15T03:20:14;4.20;99.90
4673;DHT22;61885;53.560;9.940;2023-02-15T03:22:47;4.20;99.90
4673;DHT22;61885;53.560;9.940;2023-02-15T03:25:22;4.20;99.90
4673;DHT22;61885;53.560;9.940;2023-02-15T03:27:54;4.20;99.90
4673;DHT22;61885;53.560;9.940;2023-02-15T03:30:28;4.30;99.90
4673;DHT22;61885;53.560;9.940;2023-02-15T03:33:00;4.30;99.90
4673;DHT22;61885;53.560;9.940;2023-02-15T03:35:39;4.20;99.90
4673;DHT22;61885;53.560;9.940;2023-02-15T03:38:13;4.20;99.90
4673;DHT22;61885;53.560;9.940;2023-02-15T03:40:47;4.10;99.90
4673;DHT22;61885;53.560;9.940;2023-02-15T03:43:33;4.20;99.90
4673;DHT22;61885;53.560;9.940;2023-02-15T03:46:12;4.10;99.90
4673;DHT22;61885;53.560;9.940;2023-02-15T03:48:47;4.10;99.90
4673;DHT22;61885;53.560;9.940;2023-02-15T03:51:28;4.10;99.90
4673;DHT22;61885;53.560;9.940;2023-02-15T03:54:06;4.10;99.90
4673;DHT22;61885;53.560;9.940;2023-02-15T03:56:40;4.20;99.90
4673;DHT22;61885;53.560;9.940;2023-02-15T03:59:30;4.30;99.90
4673;DHT22;61885;53.560;9.940;2023-02-15T04:02:19;4.20;99.90
4673;DHT22;61885;53.560;9.940;2023-02-15T04:04:50;4.10;99.90
4673;DHT22;61885;53.560;9.940;2023-02-15T04:07:23;4.10;99.90
4673;DHT22;61885;53.560;9.940;2023-02-15T04:09:52;4.00;99.90
4673;DHT22;61885;53.560;9.940;2023-02-15T04:12:34;4.00;99.90
4673;DHT22;61885;53.560;9.940;2023-02-15T04:15:05;4.10;99.90
4673;DHT22;61885;53.560;9.940;2023-02-15T04:17:47;4.10;99.90
4673;DHT22;61885;53.560;9.940;2023-02-15T04:20:17;4.00;99.90
4673;DHT22;61885;53.560;9.940;2023-02-15T04:23:05;4.00;99.90
4673;DHT22;61885;53.560;9.940;2023-02-15T04:25:47;4.00;99.90
4673;DHT22;61885;53.560;9.940;2023-02-15T04:28:17;4.00;99.90
4673;DHT22;61885;53.560;9.940;2023-02-15T04:30:48;4.10;99.90
4673;DHT22;61885;53.560;9.940;2023-02-15T04:33:18;4.00;99.90
4673;DHT22;61885;53.560;9.940;2023-02-15T04:35:47;3.80;99.90
4673;DHT22;61885;53.560;9.940;2023-02-15T04:38:20;3.90;99.90
4673;DHT22;61885;53.560;9.940;2023-02-15T04:40:50;3.90;99.90
4673;DHT22;61885;53.560;9.940;2023-02-15T04:43:20;3.90;99.90
4673;DHT22;61885;53.560;9.940;2023-02-15T04:45:51;3.90;99.90
4673;DHT22;61885;53.560;9.940;2023-02-15T04:48:20;4.00;99.90
4673;DHT22;61885;53.560;9.940;2023-02-15T04:50:53;4.00;99.90
4673;DHT22;61885;53.560;9.940;2023-02-15T04:53:25;3.90;99.90
4673;DHT22;61885;53.560;9.940;2023-02-15T04:55:54;3.80;99.90
4673;DHT22;61885;53.560;9.940;2023-02-15T04:58:24;3.80;99.90
4673;DHT22;61885;53.560;9.940;2023-02-15T05:00:57;4.00;99.90
4673;DHT22;61885;53.560;9.940;2023-02-15T05:03:27;3.80;99.90
4673;DHT22;61885;53.560;9.940;2023-02-15T05:05:56;3.80;99.90
4673;DHT22;61885;53.560;9.940;2023-02-15T05:08:31;3.80;99.90
4673;DHT22;61885;53.560;9.940;2023-02-15T05:11:03;3.80;99.90
4673;DHT22;61885;53.560;9.940;2023-02-15T05:13:33;3.80;99.90
4673;DHT22;61885;53.560;9.940;2023-02-15T05:16:03;3.80;99.90
4673;DHT22;61885;53.560;9.940;2023-02-15T05:18:33;3.70;99.90
4673;DHT22;61885;53.560;9.940;2023-02-15T05:21:02;3.70;99.90
4673;DHT22;61885;53.560;9.940;2023-02-15T05:23:35;3.70;99.90
4673;DHT22;61885;53.560;9.940;2023-02-15T05:26:05;3.70;99.90
4673;DHT22;61885;53.560;9.940;2023-02-15T05:28:47;3.70;99.90
4673;DHT22;61885;53.560;9.940;2023-02-15T05:31:20;3.70;99.90
4673;DHT22;61885;53.560;9.940;2023-02-15T05:33:50;3.70;99.90
4673;DHT22;61885;53.560;9.940;2023-02-15T05:36:20;3.70;99.90
4673;DHT22;61885;53.560;9.940;2023-02-15T05:38:52;3.60;99.90
4673;DHT22;61885;53.560;9.940;2023-02-15T05:41:23;3.60;99.90
4673;DHT22;61885;53.560;9.940;2023-02-15T05:43:55;3.70;99.90
4673;DHT22;61885;53.560;9.940;2023-02-15T05:46:25;3.60;99.90
4673;DHT22;61885;53.560;9.940;2023-02-15T05:48:55;3.60;99.90
4673;DHT22;61885;53.560;9.940;2023-02-15T05:51:24;3.60;99.90
4673;DHT22;61885;53.560;9.940;2023-02-15T05:53:56;3.60;99.90
4673;DHT22;61885;53.560;9.940;2023-02-15T05:56:26;3.60;99.90
4673;DHT22;61885;53.560;9.940;2023-02-15T05:58:58;3.50;99.90
4673;DHT22;61885;53.560;9.940;2023-02-15T06:01:28;3.50;99.90
4673;DHT22;61885;53.560;9.940;2023-02-15T06:03:58;3.50;99.90
4673;DHT22;61885;53.560;9.940;2023-02-15T06:06:29;3.40;99.90
4673;DHT22;61885;53.560;9.940;2023-02-15T06:09:06;3.50;99.90
4673;DHT22;61885;53.560;9.940;2023-02-15T06:11:37;3.40;99.90
4673;DHT22;61885;53.560;9.940;2023-02-15T06:14:10;3.40;99.90
4673;DHT22;61885;53.560;9.940;2023-02-15T06:16:40;3.40;99.90
4673;DHT22;61885;53.560;9.940;2023-02-15T06:19:13;3.40;99.90
4673;DHT22;61885;53.560;9.940;2023-02-15T06:21:47;3.50;99.90
4673;DHT22;61885;53.560;9.940;2023-02-15T06:24:20;3.50;99.90
4673;DHT22;61885;53.560;9.940;2023-02-15T06:26:50;3.50;99.90
4673;DHT22;61885;53.560;9.940;2023-02-15T06:29:19;3.40;99.90
4673;DHT22;61885;53.560;9.940;2023-02-15T06:31:49;3.30;99.90
4673;DHT22;61885;53.560;9.940;2023-02-15T06:34:20;3.20;99.90
4673;DHT22;61885;53.560;9.940;2023-02-15T06:36:50;3.10;99.90
4673;DHT22;61885;53.560;9.940;2023-02-15T06:39:23;3.20;99.90
4673;DHT22;61885;53.560;9.940;2023-02-15T06:41:54;3.30;99.90
4673;DHT22;61885;53.560;9.940;2023-02-15T06:44:24;3.40;99.90
4673;DHT22;61885;53.560;9.940;2023-02-15T06:46:54;3.40;99.90
4673;DHT22;61885;53.560;9.940;2023-02-15T06:49:24;3.40;99.90
4673;DHT22;61885;53.560;9.940;2023-02-15T06:51:54;3.40;99.90
4673;DHT22;61885;53.560;9.940;2023-02-15T06:54:28;3.40;99.90
4673;DHT22;61885;53.560;9.940;2023-02-15T06:57:00;3.50;99.90
4673;DHT22;61885;53.560;9.940;2023-02-15T06:59:33;3.40;99.90
4673;DHT22;61885;53.560;9.940;2023-02-15T07:02:02;3.30;99.90
4673;DHT22;61885;53.560;9.940;2023-02-15T07:04:32;3.30;99.90
4673;DHT22;61885;53.560;9.940;2023-02-15T07:07:02;3.30;99.90
4673;DHT22;61885;53.560;9.940;2023-02-15T07:09:35;3.30;99.90
4673;DHT22;61885;53.560;9.940;2023-02-15T07:12:05;3.40;99.90
4673;DHT22;61885;53.560;9.940;2023-02-15T07:14:47;3.40;99.90
4673;DHT22;61885;53.560;9.940;2023-02-15T07:17:17;3.50;99.90
4673;DHT22;61885;53.560;9.940;2023-02-15T07:19:46;3.50;99.90
4673;DHT22;61885;53.560;9.940;2023-02-15T07:22:16;3.50;99.90
4673;DHT22;61885;53.560;9.940;2023-02-15T07:24:50;3.50;99.90
4673;DHT22;61885;53.560;9.940;2023-02-15T07:27:22;3.60;99.90
4673;DHT22;61885;53.560;9.940;2023-02-15T07:29:53;3.60;99.90
4673;DHT22;61885;53.560;9.940;2023-02-15T07:32:22;3.50;99.90
4673;DHT22;61885;53.560;9.940;2023-02-15T07:34:52;3.30;99.90
4673;DHT22;61885;53.560;9.940;2023-02-15T07:37:26;3.30;99.90
4673;DHT22;61885;53.560;9.940;2023-02-15T07:39:59;3.30;99.90
4673;DHT22;61885;53.560;9.940;2023-02-15T07:42:30;3.20;99.90
4673;DHT22;61885;53.560;9.940;2023-02-15T07:45:00;3.30;99.90
4673;DHT22;61885;53.560;9.940;2023-02-15T07:47:30;3.40;99.90
4673;DHT22;61885;53.560;9.940;2023-02-15T07:49:59;3.40;99.90
4673;DHT22;61885;53.560;9.940;2023-02-15T07:52:29;3.50;99.90
4673;DHT22;61885;53.560;9.940;2023-02-15T07:55:01;3.50;99.90
4673;DHT22;61885;53.560;9.940;2023-02-15T07:57:31;3.40;99.90
4673;DHT22;61885;53.560;9.940;2023-02-15T08:00:02;3.40;99.90
4673;DHT22;61885;53.560;9.940;2023-02-15T08:02:34;3.50;99.90
4673;DHT22;61885;53.560;9.940;2023-02-15T08:05:05;3.50;99.90
4673;DHT22;61885;53.560;9.940;2023-02-15T08:07:34;3.50;99.90
4673;DHT22;61885;53.560;9.940;2023-02-15T08:10:07;3.40;99.90
4673;DHT22;61885;53.560;9.940;2023-02-15T08:12:57;3.40;99.90
4673;DHT22;61885;53.560;9.940;2023-02-15T08:15:27;3.40;99.90
4673;DHT22;61885;53.560;9.940;2023-02-15T08:17:58;3.40;99.90
4673;DHT22;61885;53.560;9.940;2023-02-15T08:20:28;3.40;99.90
4673;DHT22;61885;53.560;9.940;2023-02-15T08:22:58;3.60;99.90
4673;DHT22;61885;53.560;9.940;2023-02-15T08:25:32;3.40;99.90
4673;DHT22;61885;53.560;9.940;2023-02-15T08:28:04;3.40;99.90
4673;DHT22;61885;53.560;9.940;2023-02-15T08:30:33;3.40;99.90
4673;DHT22;61885;53.560;9.940;2023-02-15T08:33:03;3.20;99.90
4673;DHT22;61885;53.560;9.940;2023-02-15T08:35:38;3.30;99.90
4673;DHT22;61885;53.560;9.940;2023-02-15T08:38:07;3.30;99.90
4673;DHT22;61885;53.560;9.940;2023-02-15T08:40:40;3.40;99.90
4673;DHT22;61885;53.560;9.940;2023-02-15T08:43:09;3.50;99.90
4673;DHT22;61885;53.560;9.940;2023-02-15T08:45:39;3.40;99.90
4673;DHT22;61885;53.560;9.940;2023-02-15T08:48:08;3.50;99.90
4673;DHT22;61885;53.560;9.940;2023-02-15T08:50:38;3.50;99.90
4673;DHT22;61885;53.560;9.940;2023-02-15T08:53:07;3.40;99.90
4673;DHT22;61885;53.560;9.940;2023-02-15T08:55:40;3.40;99.90
4673;DHT22;61885;53.560;9.940;2023-02-15T08:58:10;3.30;99.90
4673;DHT22;61885;53.560;9.940;2023-02-15T09:00:41;3.10;99.90
4673;DHT22;61885;53.560;9.940;2023-02-15T09:03:10;3.30;99.90
4673;DHT22;61885;53.560;9.940;2023-02-15T09:05:39;3.50;99.90
4673;DHT22;61885;53.560;9.940;2023-02-15T09:08:09;3.20;99.90
4673;DHT22;61885;53.560;9.940;2023-02-15T09:10:41;3.30;99.90
4673;DHT22;61885;53.560;9.940;2023-02-15T09:13:11;3.20;99.90
4673;DHT22;61885;53.560;9.940;2023-02-15T09:15:41;3.10;99.90
4673;DHT22;61885;53.560;9.940;2023-02-15T09:18:10;3.20;99.90
4673;DHT22;61885;53.560;9.940;2023-02-15T09:20:44;3.30;99.90
4673;DHT22;61885;53.560;9.940;2023-02-15T09:23:15;3.30;99.90
4673;DHT22;61885;53.560;9.940;2023-02-15T09:25:50;3.20;99.90
4673;DHT22;61885;53.560;9.940;2023-02-15T09:28:19;3.20;99.90
4673;DHT22;61885;53.560;9.940;2023-02-15T09:30:49;3.40;99.90
4673;DHT22;61885;53.560;9.940;2023-02-15T09:33:19;3.50;99.90
4673;DHT22;61885;53.560;9.940;2023-02-15T09:35:51;3.50;99.90
4673;DHT22;61885;53.560;9.940;2023-02-15T09:38:21;3.50;99.90
4673;DHT22;61885;53.560;9.940;2023-02-15T09:41:02;3.90;99.90
4673;DHT22;61885;53.560;9.940;2023-02-15T09:43:40;4.10;99.90
4673;DHT22;61885;53.560;9.940;2023-02-15T09:46:25;4.10;99.90
4673;DHT22;61885;53.560;9.940;2023-02-15T09:48:58;4.00;99.90
4673;DHT22;61885;53.560;9.940;2023-02-15T09:54:59;4.20;99.90
4673;DHT22;61885;53.560;9.940;2023-02-15T09:57:41;4.20;99.90
4673;DHT22;61885;53.560;9.940;2023-02-15T10:00:21;4.30;99.90
4673;DHT22;61885;53.560;9.940;2023-02-15T10:03:23;4.40;99.90
4673;DHT22;61885;53.560;9.940;2023-02-15T10:06:11;4.40;99.90
4673;DHT22;61885;53.560;9.940;2023-02-15T10:09:02;4.20;99.90
4673;DHT22;61885;53.560;9.940;2023-02-15T10:11:44;4.20;99.90
4673;DHT22;61885;53.560;9.940;2023-02-15T10:14:39;4.20;99.90
4673;DHT22;61885;53.560;9.940;2023-02-15T10:18:01;4.20;99.90
4673;DHT22;61885;53.560;9.940;2023-02-15T10:20:41;4.00;99.90
4673;DHT22;61885;53.560;9.940;2023-02-15T10:23:41;4.10;99.90
4673;DHT22;61885;53.560;9.940;2023-02-15T10:26:24;4.20;99.90
4673;DHT22;61885;53.560;9.940;2023-02-15T10:29:00;4.40;99.90
4673;DHT22;61885;53.560;9.940;2023-02-15T10:31:50;4.40;99.90
4673;DHT22;61885;53.560;9.940;2023-02-15T10:37:54;4.40;99.90
4673;DHT22;61885;53.560;9.940;2023-02-15T10:40:42;4.30;99.90
4673;DHT22;61885;53.560;9.940;2023-02-15T10:46:52;4.40;99.90
4673;DHT22;61885;53.560;9.940;2023-02-15T10:49:53;4.50;99.90
4673;DHT22;61885;53.560;9.940;2023-02-15T10:52:40;4.80;99.90
4673;DHT22;61885;53.560;9.940;2023-02-15T10:55:20;4.80;99.90
4673;DHT22;61885;53.560;9.940;2023-02-15T10:58:10;4.80;99.90
4673;DHT22;61885;53.560;9.940;2023-02-15T11:00:49;4.80;99.90
4673;DHT22;61885;53.560;9.940;2023-02-15T11:03:56;4.90;99.90
4673;DHT22;61885;53.560;9.940;2023-02-15T11:06:44;4.90;99.90
4673;DHT22;61885;53.560;9.940;2023-02-15T11:09:42;4.90;99.90
4673;DHT22;61885;53.560;9.940;2023-02-15T11:12:20;4.80;99.90
4673;DHT22;61885;53.560;9.940;2023-02-15T11:15:01;5.00;99.90
4673;DHT22;61885;53.560;9.940;2023-02-15T11:17:36;5.10;99.90
4673;DHT22;61885;53.560;9.940;2023-02-15T11:20:16;4.90;99.90
4673;DHT22;61885;53.560;9.940;2023-02-15T11:22:51;5.10;99.90
4673;DHT22;61885;53.560;9.940;2023-02-15T11:25:28;5.00;99.90
4673;DHT22;61885;53.560;9.940;2023-02-15T11:28:06;5.00;99.90
4673;DHT22;61885;53.560;9.940;2023-02-15T11:30:49;5.20;99.90
4673;DHT22;61885;53.560;9.940;2023-02-15T11:33:25;5.30;99.90
4673;DHT22;61885;53.560;9.940;2023-02-15T11:36:09;5.30;99.90
4673;DHT22;61885;53.560;9.940;2023-02-15T11:38:52;5.30;99.90
4673;DHT22;61885;53.560;9.940;2023-02-15T11:41:27;5.30;99.90
4673;DHT22;61885;53.560;9.940;2023-02-15T11:44:11;5.40;99.90
4673;DHT22;61885;53.560;9.940;2023-02-15T11:46:50;5.40;99.90
4673;DHT22;61885;53.560;9.940;2023-02-15T11:49:32;5.40;99.90
4673;DHT22;61885;53.560;9.940;2023-02-15T11:52:14;5.30;99.90
4673;DHT22;61885;53.560;9.940;2023-02-15T11:54:46;5.30;99.90
4673;DHT22;61885;53.560;9.940;2023-02-15T11:57:25;5.40;99.90
4673;DHT22;61885;53.560;9.940;2023-02-15T12:00:02;5.30;99.90
4673;DHT22;61885;53.560;9.940;2023-02-15T12:02:38;5.50;99.90
4673;DHT22;61885;53.560;9.940;2023-02-15T12:05:19;5.60;99.90
4673;DHT22;61885;53.560;9.940;2023-02-15T12:08:01;5.70;99.90
4673;DHT22;61885;53.560;9.940;2023-02-15T12:10:40;5.70;99.90
4673;DHT22;61885;53.560;9.940;2023-02-15T12:13:15;5.70;99.90
4673;DHT22;61885;53.560;9.940;2023-02-15T12:16:04;5.60;99.90
4673;DHT22;61885;53.560;9.940;2023-02-15T12:18:41;5.60;99.90
4673;DHT22;61885;53.560;9.940;2023-02-15T12:21:14;5.70;99.90
4673;DHT22;61885;53.560;9.940;2023-02-15T12:23:48;5.80;99.90
4673;DHT22;61885;53.560;9.940;2023-02-15T12:26:24;5.80;99.90
4673;DHT22;61885;53.560;9.940;2023-02-15T12:28:56;5.90;99.90
4673;DHT22;61885;53.560;9.940;2023-02-15T12:31:33;6.00;99.90
4673;DHT22;61885;53.560;9.940;2023-02-15T12:34:11;6.20;99.90
4673;DHT22;61885;53.560;9.940;2023-02-15T12:36:46;6.30;99.90
4673;DHT22;61885;53.560;9.940;2023-02-15T12:39:25;6.30;99.90
4673;DHT22;61885;53.560;9.940;2023-02-15T12:42:01;6.30;99.90
4673;DHT22;61885;53.560;9.940;2023-02-15T12:44:33;6.40;99.90
4673;DHT22;61885;53.560;9.940;2023-02-15T12:47:17;6.50;99.90
4673;DHT22;61885;53.560;9.940;2023-02-15T12:50:10;6.50;99.90
4673;DHT22;61885;53.560;9.940;2023-02-15T12:52:44;6.60;99.90
4673;DHT22;61885;53.560;9.940;2023-02-15T12:55:26;6.80;99.90
4673;DHT22;61885;53.560;9.940;2023-02-15T12:58:18;6.80;99.90
4673;DHT22;61885;53.560;9.940;2023-02-15T13:01:03;6.90;99.90
4673;DHT22;61885;53.560;9.940;2023-02-15T13:03:33;6.90;99.90
4673;DHT22;61885;53.560;9.940;2023-02-15T13:06:04;7.50;99.90
4673;DHT22;61885;53.560;9.940;2023-02-15T13:08:46;7.30;99.90
4673;DHT22;61885;53.560;9.940;2023-02-15T13:11:25;7.30;99.90
4673;DHT22;61885;53.560;9.940;2023-02-15T13:14:02;7.40;99.90
4673;DHT22;61885;53.560;9.940;2023-02-15T13:16:37;7.40;99.90
4673;DHT22;61885;53.560;9.940;2023-02-15T13:19:15;7.40;99.90
4673;DHT22;61885;53.560;9.940;2023-02-15T13:21:50;7.40;99.90
4673;DHT22;61885;53.560;9.940;2023-02-15T13:24:22;7.50;99.90
4673;DHT22;61885;53.560;9.940;2023-02-15T13:27:01;7.50;99.90
4673;DHT22;61885;53.560;9.940;2023-02-15T13:29:33;7.40;99.90
4673;DHT22;61885;53.560;9.940;2023-02-15T13:32:20;7.80;99.90
4673;DHT22;61885;53.560;9.940;2023-02-15T13:34:58;7.70;99.90
4673;DHT22;61885;53.560;9.940;2023-02-15T13:37:42;7.70;99.90
4673;DHT22;61885;53.560;9.940;2023-02-15T13:40:22;7.70;99.90
4673;DHT22;61885;53.560;9.940;2023-02-15T13:43:04;8.20;99.90
4673;DHT22;61885;53.560;9.940;2023-02-15T13:45:52;8.00;99.90
4673;DHT22;61885;53.560;9.940;2023-02-15T13:48:40;7.80;99.90
4673;DHT22;61885;53.560;9.940;2023-02-15T13:51:19;9.10;99.90
4673;DHT22;61885;53.560;9.940;2023-02-15T13:54:33;7.70;99.90
4673;DHT22;61885;53.560;9.940;2023-02-15T13:57:27;7.80;99.90
4673;DHT22;61885;53.560;9.940;2023-02-15T14:00:20;7.90;99.90
4673;DHT22;61885;53.560;9.940;2023-02-15T14:03:07;7.80;99.90
4673;DHT22;61885;53.560;9.940;2023-02-15T14:06:01;7.70;99.90
4673;DHT22;61885;53.560;9.940;2023-02-15T14:08:53;7.60;99.90
4673;DHT22;61885;53.560;9.940;2023-02-15T14:11:35;7.80;99.90
4673;DHT22;61885;53.560;9.940;2023-02-15T14:14:25;7.70;99.90
4673;DHT22;61885;53.560;9.940;2023-02-15T14:17:11;7.60;99.90
4673;DHT22;61885;53.560;9.940;2023-02-15T14:19:51;7.70;99.90
4673;DHT22;61885;53.560;9.940;2023-02-15T14:22:36;7.70;99.90
4673;DHT22;61885;53.560;9.940;2023-02-15T14:25:20;7.80;99.90
4673;DHT22;61885;53.560;9.940;2023-02-15T14:28:00;7.90;99.90
4673;DHT22;61885;53.560;9.940;2023-02-15T14:30:52;8.00;99.90
4673;DHT22;61885;53.560;9.940;2023-02-15T14:33:36;8.00;99.90
4673;DHT22;61885;53.560;9.940;2023-02-15T14:36:13;8.00;99.90
4673;DHT22;61885;53.560;9.940;2023-02-15T14:39:08;8.10;99.90
4673;DHT22;61885;53.560;9.940;2023-02-15T14:42:11;8.00;99.90
4673;DHT22;61885;53.560;9.940;2023-02-15T14:44:55;8.00;99.90
4673;DHT22;61885;53.560;9.940;2023-02-15T14:47:45;8.00;99.90
4673;DHT22;61885;53.560;9.940;2023-02-15T14:50:47;8.00;99.90
4673;DHT22;61885;53.560;9.940;2023-02-15T14:53:34;8.10;99.90
4673;DHT22;61885;53.560;9.940;2023-02-15T14:56:19;8.10;99.90
4673;DHT22;61885;53.560;9.940;2023-02-15T14:59:16;8.10;99.90
4673;DHT22;61885;53.560;9.940;2023-02-15T15:01:55;8.30;99.90
4673;DHT22;61885;53.560;9.940;2023-02-15T15:04:33;8.10;99.90
4673;DHT22;61885;53.560;9.940;2023-02-15T15:07:13;8.10;99.90
4673;DHT22;61885;53.560;9.940;2023-02-15T15:09:48;8.20;99.90
4673;DHT22;61885;53.560;9.940;2023-02-15T15:12:41;8.10;99.90
4673;DHT22;61885;53.560;9.940;2023-02-15T15:15:33;8.10;99.90
4673;DHT22;61885;53.560;9.940;2023-02-15T15:18:06;8.10;99.90
4673;DHT22;61885;53.560;9.940;2023-02-15T15:20:48;8.10;99.90
4673;DHT22;61885;53.560;9.940;2023-02-15T15:23:41;8.00;99.90
4673;DHT22;61885;53.560;9.940;2023-02-15T15:26:25;8.00;99.90
4673;DHT22;61885;53.560;9.940;2023-02-15T15:28:59;8.10;99.90
4673;DHT22;61885;53.560;9.940;2023-02-15T15:31:46;8.00;99.90
4673;DHT22;61885;53.560;9.940;2023-02-15T15:40:55;7.70;99.90
4673;DHT22;61885;53.560;9.940;2023-02-15T15:46:53;7.70;99.90
4673;DHT22;61885;53.560;9.940;2023-02-15T15:49:30;7.60;99.90
4673;DHT22;61885;53.560;9.940;2023-02-15T15:52:03;7.60;99.90
4673;DHT22;61885;53.560;9.940;2023-02-15T15:54:40;7.60;99.90
4673;DHT22;61885;53.560;9.940;2023-02-15T15:57:21;7.50;99.90
4673;DHT22;61885;53.560;9.940;2023-02-15T15:59:54;7.40;99.90
4673;DHT22;61885;53.560;9.940;2023-02-15T16:02:28;7.40;99.90
4673;DHT22;61885;53.560;9.940;2023-02-15T16:05:07;7.30;99.90
4673;DHT22;61885;53.560;9.940;2023-02-15T16:07:40;7.30;99.90
4673;DHT22;61885;53.560;9.940;2023-02-15T16:10:21;7.20;99.90
4673;DHT22;61885;53.560;9.940;2023-02-15T16:12:55;7.10;99.90
4673;DHT22;61885;53.560;9.940;2023-02-15T16:15:33;7.10;99.90
4673;DHT22;61885;53.560;9.940;2023-02-15T16:18:05;7.10;99.90
4673;DHT22;61885;53.560;9.940;2023-02-15T16:20:38;6.90;99.90
4673;DHT22;61885;53.560;9.940;2023-02-15T16:23:35;6.80;99.90
4673;DHT22;61885;53.560;9.940;2023-02-15T16:26:14;6.80;99.90
4673;DHT22;61885;53.560;9.940;2023-02-15T16:28:53;6.80;99.90
4673;DHT22;61885;53.560;9.940;2023-02-15T16:31:23;6.80;99.90
4673;DHT22;61885;53.560;9.940;2023-02-15T16:34:00;6.60;99.90
4673;DHT22;61885;53.560;9.940;2023-02-15T16:36:41;6.60;99.90
4673;DHT22;61885;53.560;9.940;2023-02-15T16:39:19;6.50;99.90
4673;DHT22;61885;53.560;9.940;2023-02-15T16:41:55;6.50;99.90
4673;DHT22;61885;53.560;9.940;2023-02-15T16:44:35;6.50;99.90
4673;DHT22;61885;53.560;9.940;2023-02-15T16:47:14;6.40;99.90
4673;DHT22;61885;53.560;9.940;2023-02-15T16:49:48;6.40;99.90
4673;DHT22;61885;53.560;9.940;2023-02-15T16:52:21;6.30;99.90
4673;DHT22;61885;53.560;9.940;2023-02-15T16:54:54;6.20;99.90
4673;DHT22;61885;53.560;9.940;2023-02-15T16:57:29;6.20;99.90
4673;DHT22;61885;53.560;9.940;2023-02-15T17:00:17;6.10;99.90
4673;DHT22;61885;53.560;9.940;2023-02-15T17:02:54;6.00;99.90
4673;DHT22;61885;53.560;9.940;2023-02-15T17:05:31;6.00;99.90
4673;DHT22;61885;53.560;9.940;2023-02-15T17:08:15;5.90;99.90
4673;DHT22;61885;53.560;9.940;2023-02-15T17:11:00;5.90;99.90
4673;DHT22;61885;53.560;9.940;2023-02-15T17:13:33;5.90;99.90
4673;DHT22;61885;53.560;9.940;2023-02-15T17:16:25;5.80;99.90
4673;DHT22;61885;53.560;9.940;2023-02-15T17:18:59;5.80;99.90
4673;DHT22;61885;53.560;9.940;2023-02-15T17:21:33;5.70;99.90
4673;DHT22;61885;53.560;9.940;2023-02-15T17:24:03;5.70;99.90
4673;DHT22;61885;53.560;9.940;2023-02-15T17:26:36;5.70;99.90
4673;DHT22;61885;53.560;9.940;2023-02-15T17:29:12;5.70;99.90